createdAt,value
2018-09-26T00:01:56.305Z,9.90
2018-09-26T00:04:27.097Z,9.80
2018-09-26T00:06:56.406Z,9.80
2018-09-26T00:09:24.992Z,9.80
2018-09-26T00:11:53.594Z,9.80
2018-09-26T00:14:22.236Z,9.80
2018-09-26T00:16:50.921Z,9.80
2018-09-26T00:19:19.497Z,9.80
2018-09-26T00:21:49.093Z,9.90
2018-09-26T00:24:17.768Z,9.80
2018-09-26T00:26:46.386Z,9.80
2018-09-26T00:29:15.029Z,9.80
2018-09-26T00:31:43.607Z,9.80
2018-09-26T00:34:12.229Z,9.80
2018-09-26T00:36:40.848Z,9.80
2018-09-26T00:39:09.442Z,9.80
2018-09-26T00:41:38.173Z,9.80
2018-09-26T00:44:06.858Z,9.70
2018-09-26T00:46:35.485Z,9.70
2018-09-26T00:49:04.070Z,9.70
2018-09-26T00:51:32.660Z,9.70
2018-09-26T00:54:01.330Z,9.70
2018-09-26T00:56:29.988Z,9.70
2018-09-26T00:58:58.588Z,9.80
2018-09-26T01:01:27.191Z,9.80
2018-09-26T01:03:55.847Z,9.80
2018-09-26T01:06:24.427Z,9.80
2018-09-26T01:08:53.188Z,9.80
2018-09-26T01:11:21.765Z,9.80
2018-09-26T01:13:50.349Z,9.80
2018-09-26T01:16:18.900Z,9.80
2018-09-26T01:18:47.518Z,9.80
2018-09-26T01:21:16.178Z,9.70
2018-09-26T01:23:44.725Z,9.80
2018-09-26T01:26:13.318Z,9.80
2018-09-26T01:28:41.903Z,9.80
2018-09-26T01:31:10.461Z,9.80
2018-09-26T01:33:39.042Z,9.80
2018-09-26T01:36:07.670Z,9.80
2018-09-26T01:38:36.206Z,9.80
2018-09-26T01:41:05.444Z,9.80
2018-09-26T01:43:34.099Z,9.80
2018-09-26T01:46:02.715Z,9.90
2018-09-26T01:48:31.259Z,9.80
2018-09-26T01:50:59.869Z,9.90
2018-09-26T01:53:28.423Z,9.80
2018-09-26T01:55:56.984Z,9.80
2018-09-26T01:58:25.564Z,9.90
2018-09-26T02:00:54.224Z,9.90
2018-09-26T02:03:22.784Z,9.90
2018-09-26T02:05:51.401Z,9.90
2018-09-26T02:08:19.939Z,9.80
2018-09-26T02:10:48.497Z,9.80
2018-09-26T02:13:17.038Z,9.90
2018-09-26T02:15:45.583Z,9.90
2018-09-26T02:18:14.151Z,9.90
2018-09-26T02:20:42.717Z,9.90
2018-09-26T02:23:11.273Z,9.90
2018-09-26T02:25:39.865Z,9.90
2018-09-26T02:28:08.475Z,10.00
2018-09-26T02:30:37.059Z,10.00
2018-09-26T02:33:05.752Z,10.00
2018-09-26T02:35:34.393Z,10.00
2018-09-26T02:38:02.968Z,10.00
2018-09-26T02:40:31.661Z,10.10
2018-09-26T02:43:00.338Z,10.10
2018-09-26T02:45:28.928Z,10.10
2018-09-26T02:47:57.513Z,10.10
2018-09-26T02:50:26.123Z,10.10
2018-09-26T02:52:54.729Z,10.10
2018-09-26T02:55:23.501Z,10.20
2018-09-26T02:57:59.390Z,10.20
2018-09-26T03:00:27.981Z,10.30
2018-09-26T03:02:56.605Z,10.40
2018-09-26T03:05:25.227Z,10.40
2018-09-26T03:07:53.807Z,10.40
2018-09-26T03:10:22.402Z,10.50
2018-09-26T03:12:52.811Z,10.50
2018-09-26T03:15:21.399Z,10.50
2018-09-26T03:17:49.952Z,10.50
2018-09-26T03:20:18.519Z,10.50
2018-09-26T03:22:47.114Z,10.50
2018-09-26T03:25:15.689Z,10.50
2018-09-26T03:27:44.270Z,10.50
2018-09-26T03:30:12.873Z,10.50
2018-09-26T03:32:41.477Z,10.40
2018-09-26T03:35:10.032Z,10.40
2018-09-26T03:37:38.637Z,10.40
2018-09-26T03:40:07.249Z,10.40
2018-09-26T03:42:35.765Z,10.40
2018-09-26T03:45:04.891Z,10.40
2018-09-26T03:47:33.497Z,10.40
2018-09-26T03:50:02.079Z,10.40
2018-09-26T03:52:30.660Z,10.40
2018-09-26T03:54:59.951Z,10.40
2018-09-26T03:57:28.518Z,10.40
2018-09-26T03:59:57.170Z,10.40
2018-09-26T04:02:25.810Z,10.40
2018-09-26T04:04:54.485Z,10.40
2018-09-26T04:07:23.039Z,10.40
2018-09-26T04:09:51.569Z,10.40
2018-09-26T04:12:20.277Z,10.40
2018-09-26T04:14:48.897Z,10.40
2018-09-26T04:17:17.477Z,10.40
2018-09-26T04:19:46.027Z,10.50
2018-09-26T04:22:14.599Z,10.50
2018-09-26T04:24:43.232Z,10.50
2018-09-26T04:27:11.914Z,10.50
2018-09-26T04:29:40.485Z,10.50
2018-09-26T04:32:09.121Z,10.50
2018-09-26T04:34:37.729Z,10.50
2018-09-26T04:37:06.583Z,10.50
2018-09-26T04:39:35.164Z,10.50
2018-09-26T04:42:03.720Z,10.50
2018-09-26T04:44:32.353Z,10.40
2018-09-26T04:47:00.955Z,10.50
2018-09-26T04:49:29.584Z,10.50
2018-09-26T04:51:58.204Z,10.50
2018-09-26T04:54:26.849Z,10.40
2018-09-26T04:56:55.451Z,10.40
2018-09-26T04:59:24.089Z,10.50
2018-09-26T05:01:52.694Z,10.50
2018-09-26T05:04:21.288Z,10.40
2018-09-26T05:06:49.866Z,10.40
2018-09-26T05:09:18.504Z,10.40
2018-09-26T05:11:47.105Z,10.50
2018-09-26T05:14:15.689Z,10.50
2018-09-26T05:16:44.370Z,10.40
2018-09-26T05:19:12.991Z,10.50
2018-09-26T05:21:41.602Z,10.50
2018-09-26T05:24:10.234Z,10.50
2018-09-26T05:26:38.896Z,10.40
2018-09-26T05:29:07.494Z,10.40
2018-09-26T05:31:36.131Z,10.40
2018-09-26T05:34:04.799Z,10.40
2018-09-26T05:36:33.423Z,10.40
2018-09-26T05:39:02.019Z,10.40
2018-09-26T05:41:30.680Z,10.40
2018-09-26T05:43:59.281Z,10.40
2018-09-26T05:46:27.891Z,10.40
2018-09-26T05:48:56.494Z,10.40
2018-09-26T05:51:25.146Z,10.40
2018-09-26T05:53:53.694Z,10.40
2018-09-26T05:56:22.322Z,10.40
2018-09-26T05:58:50.961Z,10.40
2018-09-26T06:01:19.608Z,10.50
2018-09-26T06:03:48.199Z,10.50
2018-09-26T06:06:16.976Z,10.50
2018-09-26T06:08:45.560Z,10.50
2018-09-26T06:11:14.170Z,10.50
2018-09-26T06:13:42.933Z,10.50
2018-09-26T06:16:11.575Z,10.50
2018-09-26T06:18:40.513Z,10.50
2018-09-26T06:21:09.395Z,10.50
2018-09-26T06:23:38.212Z,10.50
2018-09-26T06:26:07.003Z,10.50
2018-09-26T06:28:35.790Z,10.50
2018-09-26T06:31:04.413Z,10.60
2018-09-26T06:33:32.989Z,10.60
2018-09-26T06:36:01.546Z,10.60
2018-09-26T06:38:30.183Z,10.60
2018-09-26T06:40:58.807Z,10.70
2018-09-26T06:43:27.360Z,10.80
2018-09-26T06:45:55.914Z,10.80
2018-09-26T06:48:24.489Z,10.80
2018-09-26T06:50:53.144Z,10.90
2018-09-26T06:53:21.758Z,11.00
2018-09-26T06:55:50.417Z,11.00
2018-09-26T06:58:19.070Z,11.00
2018-09-26T07:00:47.728Z,11.10
2018-09-26T07:03:16.323Z,11.10
2018-09-26T07:05:44.913Z,11.20
2018-09-26T07:08:13.842Z,11.20
2018-09-26T07:10:42.408Z,11.20
2018-09-26T07:13:11.170Z,11.30
2018-09-26T07:15:39.820Z,11.40
2018-09-26T07:18:08.786Z,11.50
2018-09-26T07:20:37.458Z,11.50
2018-09-26T07:26:05.396Z,11.60
2018-09-26T07:28:34.048Z,11.70
2018-09-26T07:31:02.763Z,11.70
2018-09-26T07:33:31.317Z,11.80
2018-09-26T07:35:59.941Z,11.90
2018-09-26T07:38:28.728Z,11.90
2018-09-26T07:40:57.452Z,12.00
2018-09-26T07:43:26.287Z,12.10
2018-09-26T07:45:54.890Z,12.20
2018-09-26T07:48:23.617Z,12.20
2018-09-26T07:50:52.292Z,12.30
2018-09-26T07:53:20.909Z,12.40
2018-09-26T07:55:49.609Z,12.40
2018-09-26T07:58:18.224Z,12.50
2018-09-26T08:00:46.880Z,12.50
2018-09-26T08:03:15.496Z,12.60
2018-09-26T08:05:44.116Z,12.60
2018-09-26T08:08:12.729Z,12.80
2018-09-26T08:10:41.344Z,12.90
2018-09-26T08:13:10.131Z,13.10
2018-09-26T08:15:38.758Z,13.30
2018-09-26T08:18:07.408Z,13.60
2018-09-26T08:20:36.061Z,14.20
2018-09-26T08:23:04.735Z,14.50
2018-09-26T08:25:33.347Z,14.80
2018-09-26T08:28:01.980Z,14.90
2018-09-26T08:30:30.556Z,15.00
2018-09-26T08:32:59.212Z,15.10
2018-09-26T08:35:27.816Z,15.10
2018-09-26T08:37:56.447Z,15.10
2018-09-26T08:40:25.065Z,15.20
2018-09-26T08:42:53.726Z,15.20
2018-09-26T08:45:22.530Z,15.30
2018-09-26T08:47:51.234Z,15.40
2018-09-26T08:50:19.937Z,15.50
2018-09-26T08:52:48.597Z,15.50
2018-09-26T08:55:17.285Z,15.60
2018-09-26T08:57:46.109Z,15.60
2018-09-26T09:00:14.796Z,15.70
2018-09-26T09:02:43.553Z,15.80
2018-09-26T09:05:12.264Z,15.80
2018-09-26T09:07:40.850Z,15.90
2018-09-26T09:10:09.440Z,16.00
2018-09-26T09:12:38.107Z,16.10
2018-09-26T09:15:06.761Z,16.20
2018-09-26T09:17:35.447Z,16.40
2018-09-26T09:20:04.263Z,16.40
2018-09-26T09:22:32.871Z,16.50
2018-09-26T09:25:01.473Z,16.50
2018-09-26T09:27:30.085Z,16.50
2018-09-26T09:29:58.728Z,16.60
2018-09-26T09:32:27.347Z,16.60
2018-09-26T09:34:55.988Z,16.70
2018-09-26T09:37:24.639Z,16.70
2018-09-26T09:39:53.225Z,16.70
2018-09-26T09:42:21.975Z,16.70
2018-09-26T09:44:50.739Z,16.80
2018-09-26T09:47:19.403Z,16.90
2018-09-26T09:49:47.992Z,17.00
2018-09-26T09:52:16.632Z,17.00
2018-09-26T09:54:45.294Z,17.10
2018-09-26T09:57:14.167Z,17.10
2018-09-26T09:59:42.993Z,17.10
2018-09-26T10:02:11.726Z,17.30
2018-09-26T10:04:40.419Z,17.50
2018-09-26T10:07:09.147Z,17.60
2018-09-26T10:09:37.807Z,17.50
2018-09-26T10:12:07.597Z,17.40
2018-09-26T10:14:36.319Z,17.30
2018-09-26T10:17:05.048Z,17.30
2018-09-26T10:19:33.776Z,17.50
2018-09-26T10:22:02.468Z,17.60
2018-09-26T10:24:31.118Z,17.60
2018-09-26T10:26:59.767Z,17.50
2018-09-26T10:29:28.391Z,17.70
2018-09-26T10:31:56.985Z,17.80
2018-09-26T10:34:25.577Z,17.80
2018-09-26T10:36:54.166Z,17.70
2018-09-26T10:39:22.881Z,17.60
2018-09-26T10:41:51.454Z,17.80
2018-09-26T10:44:20.196Z,17.70
2018-09-26T10:46:48.826Z,17.90
2018-09-26T10:49:17.435Z,18.20
2018-09-26T10:51:46.045Z,18.40
2018-09-26T10:54:14.628Z,18.50
2018-09-26T10:56:43.336Z,18.50
2018-09-26T10:59:12.046Z,18.50
2018-09-26T11:01:40.601Z,18.50
2018-09-26T11:04:09.232Z,18.40
2018-09-26T11:06:37.753Z,18.30
2018-09-26T11:09:08.990Z,18.40
2018-09-26T11:11:37.809Z,18.60
2018-09-26T11:14:06.533Z,18.80
2018-09-26T11:16:35.809Z,18.70
2018-09-26T11:19:04.419Z,18.70
2018-09-26T11:21:33.158Z,18.80
2018-09-26T11:24:01.861Z,18.70
2018-09-26T11:26:30.596Z,18.60
2018-09-26T11:28:59.225Z,18.80
2018-09-26T11:31:27.936Z,18.70
2018-09-26T11:33:56.644Z,18.60
2018-09-26T11:36:25.288Z,18.60
2018-09-26T11:38:54.080Z,18.80
2018-09-26T11:41:23.083Z,18.80
2018-09-26T11:43:51.735Z,18.70
2018-09-26T11:46:20.351Z,18.60
2018-09-26T11:48:48.919Z,18.70
2018-09-26T11:51:17.588Z,18.80
2018-09-26T11:53:46.603Z,19.00
2018-09-26T11:56:15.493Z,19.00
2018-09-26T11:58:44.188Z,18.90
2018-09-26T12:01:12.811Z,19.10
2018-09-26T12:03:41.463Z,19.10
2018-09-26T12:06:10.044Z,19.10
2018-09-26T12:08:38.693Z,19.10
2018-09-26T12:11:07.337Z,19.10
2018-09-26T12:13:35.997Z,19.00
2018-09-26T12:16:04.713Z,19.00
2018-09-26T12:18:33.398Z,18.90
2018-09-26T12:21:02.043Z,19.10
2018-09-26T12:23:30.659Z,19.20
2018-09-26T12:25:59.285Z,19.30
2018-09-26T12:28:27.872Z,19.10
2018-09-26T12:30:56.612Z,19.20
2018-09-26T12:33:25.276Z,19.30
2018-09-26T12:35:54.341Z,19.30
2018-09-26T12:38:23.037Z,19.40
2018-09-26T12:40:52.288Z,19.50
2018-09-26T12:43:20.897Z,19.60
2018-09-26T12:45:49.516Z,19.60
2018-09-26T12:48:18.195Z,19.50
2018-09-26T12:50:46.802Z,19.80
2018-09-26T12:53:16.602Z,19.80
2018-09-26T12:55:45.405Z,19.80
2018-09-26T12:58:14.036Z,19.70
2018-09-26T13:00:42.690Z,20.00
2018-09-26T13:03:11.206Z,20.30
2018-09-26T13:05:39.948Z,20.30
2018-09-26T13:08:08.643Z,20.20
2018-09-26T13:10:38.786Z,19.80
2018-09-26T13:13:07.831Z,19.80
2018-09-26T13:15:36.474Z,19.60
2018-09-26T13:18:05.077Z,19.80
2018-09-26T13:20:33.693Z,19.80
2018-09-26T13:23:02.399Z,20.10
2018-09-26T13:25:31.288Z,20.00
2018-09-26T13:28:00.919Z,19.90
2018-09-26T13:30:34.830Z,19.90
2018-09-26T13:33:03.490Z,20.00
2018-09-26T13:35:32.053Z,19.80
2018-09-26T13:38:00.711Z,19.60
2018-09-26T13:40:29.349Z,19.80
2018-09-26T13:42:57.990Z,19.90
2018-09-26T13:45:26.680Z,19.90
2018-09-26T13:47:55.345Z,20.00
2018-09-26T13:50:24.180Z,20.10
2018-09-26T13:52:53.985Z,19.90
2018-09-26T13:55:22.693Z,19.70
2018-09-26T13:57:51.446Z,19.80
2018-09-26T14:00:20.135Z,19.50
2018-09-26T14:02:48.980Z,19.70
2018-09-26T14:05:17.746Z,19.90
2018-09-26T14:07:46.922Z,20.30
2018-09-26T14:10:15.508Z,20.00
2018-09-26T14:12:44.861Z,20.10
2018-09-26T14:15:13.452Z,20.10
2018-09-26T14:17:42.059Z,20.30
2018-09-26T14:20:11.585Z,20.00
2018-09-26T14:22:40.231Z,20.00
2018-09-26T14:25:08.898Z,19.90
2018-09-26T14:27:37.529Z,19.80
2018-09-26T14:30:06.230Z,19.90
2018-09-26T14:32:34.791Z,19.80
2018-09-26T14:35:03.456Z,20.10
2018-09-26T14:37:32.101Z,19.80
2018-09-26T14:40:00.724Z,19.90
2018-09-26T14:42:30.079Z,19.70
2018-09-26T14:44:58.738Z,19.50
2018-09-26T14:47:27.492Z,20.00
2018-09-26T14:49:56.006Z,20.20
2018-09-26T14:52:25.798Z,20.20
2018-09-26T14:54:54.629Z,19.90
2018-09-26T14:57:23.241Z,19.70
2018-09-26T14:59:51.863Z,19.60
2018-09-26T15:02:20.585Z,19.90
2018-09-26T15:04:50.223Z,19.90
2018-09-26T15:07:18.928Z,20.00
2018-09-26T15:09:47.470Z,19.90
2018-09-26T15:12:16.138Z,20.00
2018-09-26T15:14:45.410Z,19.60
2018-09-26T15:17:14.099Z,19.50
2018-09-26T15:19:42.771Z,19.30
2018-09-26T15:22:11.394Z,19.50
2018-09-26T15:24:40.050Z,19.80
2018-09-26T15:27:08.658Z,19.80
2018-09-26T15:29:37.294Z,19.80
2018-09-26T15:32:05.979Z,19.90
2018-09-26T15:34:34.595Z,19.60
2018-09-26T15:37:03.211Z,19.60
2018-09-26T15:39:31.760Z,19.60
2018-09-26T15:42:01.120Z,19.10
2018-09-26T15:44:30.829Z,19.10
2018-09-26T15:46:59.544Z,19.30
2018-09-26T15:49:28.206Z,19.40
2018-09-26T15:51:56.844Z,19.50
2018-09-26T15:54:25.515Z,19.40
2018-09-26T15:56:54.301Z,19.50
2018-09-26T15:59:23.666Z,19.50
2018-09-26T16:01:52.399Z,19.30
2018-09-26T16:04:22.458Z,19.00
2018-09-26T16:06:51.133Z,18.60
2018-09-26T16:09:20.024Z,18.40
2018-09-26T16:11:49.128Z,18.30
2018-09-26T16:14:18.017Z,18.10
2018-09-26T16:16:46.670Z,18.10
2018-09-26T16:19:15.437Z,18.00
2018-09-26T16:21:44.126Z,17.80
2018-09-26T16:24:12.837Z,17.80
2018-09-26T16:26:42.004Z,17.60
2018-09-26T16:29:11.267Z,17.60
2018-09-26T16:31:40.013Z,17.60
2018-09-26T16:34:08.973Z,17.50
2018-09-26T16:36:37.646Z,17.50
2018-09-26T16:39:09.989Z,17.40
2018-09-26T16:41:38.552Z,17.30
2018-09-26T16:44:07.221Z,17.30
2018-09-26T16:46:36.170Z,17.20
2018-09-26T16:49:05.263Z,17.20
2018-09-26T16:51:33.945Z,17.10
2018-09-26T16:54:02.623Z,17.10
2018-09-26T16:56:31.383Z,17.00
2018-09-26T16:59:00.027Z,16.90
2018-09-26T17:01:29.945Z,16.90
2018-09-26T17:03:58.602Z,16.80
2018-09-26T17:06:27.306Z,16.80
2018-09-26T17:08:59.090Z,16.80
2018-09-26T17:11:27.733Z,16.70
2018-09-26T17:13:56.291Z,16.70
2018-09-26T17:16:25.062Z,16.60
2018-09-26T17:18:53.617Z,16.60
2018-09-26T17:21:22.177Z,16.50
2018-09-26T17:23:50.758Z,16.40
2018-09-26T17:26:19.487Z,16.40
2018-09-26T17:28:48.156Z,16.40
2018-09-26T17:31:16.757Z,16.40
2018-09-26T17:33:45.355Z,16.40
2018-09-26T17:36:13.967Z,16.30
2018-09-26T17:38:42.857Z,16.30
2018-09-26T17:41:11.540Z,16.30
2018-09-26T17:43:40.251Z,16.30
2018-09-26T17:46:09.106Z,16.20
2018-09-26T17:48:37.672Z,16.20
2018-09-26T17:51:06.290Z,16.10
2018-09-26T17:53:34.834Z,16.10
2018-09-26T17:56:03.461Z,16.10
2018-09-26T17:58:32.070Z,16.00
2018-09-26T18:01:01.484Z,16.00
2018-09-26T18:03:30.109Z,16.00
2018-09-26T18:05:58.687Z,16.10
2018-09-26T18:08:27.513Z,16.10
2018-09-26T18:10:56.134Z,16.00
2018-09-26T18:13:24.755Z,16.00
2018-09-26T18:15:53.334Z,16.00
2018-09-26T18:18:21.894Z,15.90
2018-09-26T18:20:50.526Z,15.90
2018-09-26T18:23:19.208Z,15.90
2018-09-26T18:25:47.833Z,15.90
2018-09-26T18:28:16.473Z,15.90
2018-09-26T18:30:45.149Z,15.90
2018-09-26T18:33:13.742Z,15.90
2018-09-26T18:35:43.416Z,15.80
2018-09-26T18:38:12.202Z,15.80
2018-09-26T18:40:40.889Z,15.80
2018-09-26T18:43:09.520Z,15.70
2018-09-26T18:45:38.112Z,15.70
2018-09-26T18:48:06.785Z,15.70
2018-09-26T18:50:35.377Z,15.70
2018-09-26T18:53:04.152Z,15.60
2018-09-26T18:55:32.809Z,15.60
2018-09-26T18:58:01.478Z,15.60
2018-09-26T19:00:30.106Z,15.60
2018-09-26T19:02:58.883Z,15.60
2018-09-26T19:05:27.423Z,15.60
2018-09-26T19:07:56.493Z,15.60
2018-09-26T19:10:25.079Z,15.60
2018-09-26T19:12:53.724Z,15.50
2018-09-26T19:15:22.452Z,15.50
2018-09-26T19:17:51.062Z,15.60
2018-09-26T19:20:19.689Z,15.50
2018-09-26T19:22:48.549Z,15.60
2018-09-26T19:25:17.271Z,15.50
2018-09-26T19:27:45.940Z,15.50
2018-09-26T19:30:14.909Z,15.50
2018-09-26T19:32:43.777Z,15.50
2018-09-26T19:35:12.631Z,15.50
2018-09-26T19:37:41.455Z,15.50
2018-09-26T19:40:10.413Z,15.50
2018-09-26T19:42:39.992Z,15.50
2018-09-26T19:45:08.856Z,15.50
2018-09-26T19:47:37.518Z,15.50
2018-09-26T19:50:06.224Z,15.50
2018-09-26T19:52:34.927Z,15.40
2018-09-26T19:55:04.187Z,15.40
2018-09-26T19:57:32.785Z,15.40
2018-09-26T20:00:01.435Z,15.50
2018-09-26T20:02:30.671Z,15.50
2018-09-26T20:04:59.246Z,15.50
2018-09-26T20:07:27.915Z,15.50
2018-09-26T20:09:56.554Z,15.50
2018-09-26T20:12:25.188Z,15.50
2018-09-26T20:14:53.824Z,15.50
2018-09-26T20:17:22.412Z,15.50
2018-09-26T20:19:51.005Z,15.50
2018-09-26T20:22:19.660Z,15.50
2018-09-26T20:24:48.241Z,15.50
2018-09-26T20:27:17.013Z,15.50
2018-09-26T20:29:45.749Z,15.50
2018-09-26T20:32:14.289Z,15.50
2018-09-26T20:34:43.020Z,15.40
2018-09-26T20:37:11.771Z,15.40
2018-09-26T20:39:40.372Z,15.40
2018-09-26T20:42:09.053Z,15.40
2018-09-26T20:44:37.661Z,15.40
2018-09-26T20:47:06.298Z,15.40
2018-09-26T20:49:34.972Z,15.30
2018-09-26T20:52:03.679Z,15.30
2018-09-26T20:54:33.587Z,15.30
2018-09-26T20:57:02.280Z,15.30
2018-09-26T20:59:30.966Z,15.40
2018-09-26T21:01:59.605Z,15.40
2018-09-26T21:04:28.392Z,15.40
2018-09-26T21:06:57.153Z,15.30
2018-09-26T21:09:25.809Z,15.30
2018-09-26T21:11:57.116Z,15.40
2018-09-26T21:14:25.901Z,15.40
2018-09-26T21:16:54.483Z,15.40
2018-09-26T21:19:23.085Z,15.40
2018-09-26T21:21:51.663Z,15.40
2018-09-26T21:24:20.268Z,15.40
2018-09-26T21:26:48.915Z,15.40
2018-09-26T21:29:17.523Z,15.40
2018-09-26T21:31:46.148Z,15.40
2018-09-26T21:34:14.926Z,15.40
2018-09-26T21:36:43.621Z,15.40
2018-09-26T21:39:12.253Z,15.40
2018-09-26T21:41:40.809Z,15.40
2018-09-26T21:44:10.143Z,15.40
2018-09-26T21:46:39.009Z,15.40
2018-09-26T21:49:07.756Z,15.40
2018-09-26T21:51:36.479Z,15.40
2018-09-26T21:54:05.062Z,15.40
2018-09-26T21:56:33.659Z,15.30
2018-09-26T21:59:02.266Z,15.40
2018-09-26T22:01:31.430Z,15.30
2018-09-26T22:04:00.225Z,15.40
2018-09-26T22:06:28.735Z,15.40
2018-09-26T22:08:57.266Z,15.40
2018-09-26T22:11:25.760Z,15.40
2018-09-26T22:13:55.226Z,15.40
2018-09-26T22:16:23.709Z,15.40
2018-09-26T22:18:52.311Z,15.40
2018-09-26T22:21:20.847Z,15.50
2018-09-26T22:23:49.349Z,15.40
2018-09-26T22:26:17.879Z,15.40
2018-09-26T22:28:46.542Z,15.40
2018-09-26T22:31:15.447Z,15.40
2018-09-26T22:33:43.919Z,15.40
2018-09-26T22:36:12.390Z,15.40
2018-09-26T22:38:40.898Z,15.30
2018-09-26T22:41:09.384Z,15.30
2018-09-26T22:43:37.832Z,15.40
2018-09-26T22:46:06.422Z,15.30
2018-09-26T22:48:34.900Z,15.40
2018-09-26T22:51:03.391Z,15.40
2018-09-26T22:53:31.891Z,15.30
2018-09-26T22:56:00.369Z,15.30
2018-09-26T22:58:28.855Z,15.20
2018-09-26T23:00:57.363Z,15.20
2018-09-26T23:03:25.836Z,15.20
2018-09-26T23:05:54.325Z,15.30
2018-09-26T23:08:22.876Z,15.30
2018-09-26T23:10:51.354Z,15.20
2018-09-26T23:13:19.873Z,15.20
2018-09-26T23:15:48.406Z,15.20
2018-09-26T23:18:16.865Z,15.10
2018-09-26T23:20:45.362Z,15.10
2018-09-26T23:23:14.115Z,15.20
2018-09-26T23:25:44.858Z,15.20
2018-09-26T23:28:13.326Z,15.20
2018-09-26T23:30:41.786Z,15.20
2018-09-26T23:33:10.313Z,15.20
2018-09-26T23:35:38.819Z,15.20
2018-09-26T23:38:07.885Z,15.20
2018-09-26T23:40:36.408Z,15.20
2018-09-26T23:43:04.930Z,15.20
2018-09-26T23:45:33.368Z,15.20
2018-09-26T23:48:01.882Z,15.20
2018-09-26T23:50:30.347Z,15.20
2018-09-26T23:52:58.872Z,15.20
2018-09-26T23:55:27.395Z,15.20
2018-09-26T23:57:55.829Z,15.20
